Time;durP1;ratioP1;P1;durP2;ratioP2;P2;SDS_P1;SDS_P2;PMS_P1;PMS_P2;Temp;Humidity;BMP_temperature;BMP_pressure;BME280_temperature;BME280_humidity;BME280_pressure;Samples;Min_cycle;Max_cycle;Signal;HPM_P1;HPM_P2
2023/03/25 00:03:29;;;;;;;4.60;2.53;;;;;8.60;95631.00;;;;8401088;28;20224;-69
2023/03/25 00:07:32;;;;;;;4.43;2.73;;;;;8.70;95629.00;;;;8400591;28;20188;-69
2023/03/25 00:11:36;;;;;;;4.20;2.50;;;;;8.60;95626.00;;;;8400529;28;20192;-69
2023/03/25 00:15:44;;;;;;;6.57;2.50;;;;;8.60;95637.00;;;;8400608;28;20204;-69
2023/03/25 00:19:49;;;;;;;4.03;2.30;;;;;8.60;95626.00;;;;8400841;28;20224;-69
2023/03/25 00:23:52;;;;;;;4.20;2.50;;;;;8.60;95622.00;;;;8399389;28;20196;-69
2023/03/25 00:28:02;;;;;;;5.50;2.20;;;;;8.60;95630.00;;;;8400527;28;20637;-70
2023/03/25 00:32:08;;;;;;;4.03;2.53;;;;;8.60;95628.00;;;;8400295;28;20226;-69
2023/03/25 00:36:13;;;;;;;7.03;2.23;;;;;8.70;95624.00;;;;8399824;28;20196;-69
2023/03/25 00:40:17;;;;;;;5.67;2.33;;;;;8.80;95632.00;;;;8400020;28;20227;-69
2023/03/25 00:44:22;;;;;;;7.80;3.43;;;;;8.90;95621.00;;;;8399148;28;20257;-69
2023/03/25 00:48:26;;;;;;;5.00;2.73;;;;;8.90;95622.00;;;;8399263;28;20196;-69
2023/03/25 00:52:32;;;;;;;2.77;2.57;;;;;9.00;95626.00;;;;8399237;28;20196;-69
2023/03/25 00:56:35;;;;;;;3.93;2.57;;;;;9.00;95620.00;;;;8399402;28;20518;-69
2023/03/25 01:00:40;;;;;;;8.23;2.90;;;;;9.00;95618.00;;;;8380791;28;20266;-69
2023/03/25 01:04:48;;;;;;;4.43;3.37;;;;;9.10;95610.00;;;;8398973;28;20557;-69
2023/03/25 01:08:56;;;;;;;3.63;2.50;;;;;9.10;95619.00;;;;8399148;28;20195;-69
2023/03/25 01:12:59;;;;;;;5.43;2.53;;;;;9.00;95605.00;;;;8399883;28;20188;-69
2023/03/25 01:17:04;;;;;;;3.10;2.53;;;;;9.10;95616.00;;;;8397941;28;20242;-68
2023/03/25 01:21:08;;;;;;;2.97;2.30;;;;;9.10;95608.00;;;;8398508;28;20200;-71
2023/03/25 01:25:12;;;;;;;3.13;2.60;;;;;9.20;95596.00;;;;8398602;28;20195;-69
2023/03/25 01:29:19;;;;;;;5.87;2.63;;;;;9.20;95595.00;;;;8398012;28;20313;-69
2023/03/25 01:33:24;;;;;;;4.78;2.70;;;;;9.10;95611.00;;;;8398060;28;20244;-69
2023/03/25 01:37:32;;;;;;;4.03;2.75;;;;;9.00;95604.00;;;;8397869;28;20219;-70
2023/03/25 01:41:36;;;;;;;5.23;2.27;;;;;8.90;95594.00;;;;8398959;28;20684;-70
2023/03/25 01:45:51;;;;;;;4.20;2.23;;;;;8.90;95598.00;;;;8381849;28;20189;-70
2023/03/25 01:49:56;;;;;;;2.47;2.00;;;;;8.90;95592.00;;;;8398195;28;20195;-70
2023/03/25 01:54:00;;;;;;;3.67;2.67;;;;;8.90;95588.00;;;;8398185;28;20199;-70
2023/03/25 01:58:09;;;;;;;5.87;2.70;;;;;8.90;95589.00;;;;8393857;28;20223;-70
2023/03/25 02:02:14;;;;;;;6.32;2.60;;;;;8.90;95576.00;;;;8396576;28;20228;-71
2023/03/25 02:06:27;;;;;;;8.57;2.43;;;;;8.90;95577.00;;;;8396337;28;20191;-70
2023/03/25 02:10:34;;;;;;;6.53;2.40;;;;;8.90;95576.00;;;;8397460;28;20199;-70
2023/03/25 02:14:40;;;;;;;4.30;2.40;;;;;9.00;95571.00;;;;8397125;28;20188;-70
2023/03/25 02:18:55;;;;;;;3.50;2.70;;;;;9.00;95568.00;;;;8398316;28;20266;-70
2023/03/25 02:23:30;;;;;;;7.88;3.15;;;;;8.90;95574.00;;;;8397278;28;20262;-70
2023/03/25 02:27:54;;;;;;;7.97;3.10;;;;;8.90;95570.00;;;;8396792;28;20243;-71
2023/03/25 02:32:17;;;;;;;5.35;2.90;;;;;9.00;95567.00;;;;8396814;28;20289;-70
2023/03/25 02:37:05;;;;;;;7.87;2.77;;;;;9.00;95566.00;;;;8396471;28;20241;-70
2023/03/25 02:41:21;;;;;;;3.10;2.40;;;;;9.00;95564.00;;;;8397090;28;20220;-70
2023/03/25 02:45:29;;;;;;;11.77;3.47;;;;;9.00;95562.00;;;;8399133;28;20234;-70
2023/03/25 02:49:38;;;;;;;7.73;3.80;;;;;9.00;95562.00;;;;8402787;28;20964;-70
2023/03/25 02:53:44;;;;;;;3.10;2.43;;;;;9.00;95565.00;;;;8402545;28;20188;-70
2023/03/25 02:57:53;;;;;;;4.37;2.87;;;;;9.00;95564.00;;;;8402927;28;20269;-70
2023/03/25 03:01:58;;;;;;;3.40;2.80;;;;;9.00;95560.00;;;;8406805;22;20232;-74
2023/03/25 03:06:08;;;;;;;4.93;3.00;;;;;8.90;95550.00;;;;8344824;28;20584;-71
2023/03/25 03:10:20;;;;;;;8.90;3.23;;;;;8.90;95555.00;;;;8346976;28;20197;-74
2023/03/25 03:14:34;;;;;;;2.50;2.15;;;;;8.80;95566.00;;;;8344334;28;20189;-73
2023/03/25 03:18:50;;;;;;;6.70;2.90;;;;;8.90;95543.00;;;;8344566;28;20223;-73
2023/03/25 03:23:04;;;;;;;4.87;2.13;;;;;8.90;95551.00;;;;8334430;28;20227;-71
2023/03/25 03:27:24;;;;;;;2.73;1.57;;;;;8.90;95559.00;;;;8349509;28;20270;-75
2023/03/25 03:31:38;;;;;;;4.20;1.87;;;;;8.90;95541.00;;;;8345442;28;20200;-71
2023/03/25 03:36:14;;;;;;;4.77;1.70;;;;;8.80;95551.00;;;;8351265;28;20192;-73
2023/03/25 03:40:20;;;;;;;3.10;1.60;;;;;8.80;95542.00;;;;8320350;28;20221;-79
2023/03/25 03:44:29;;;;;;;3.37;1.90;;;;;8.80;95563.00;;;;8355141;28;20788;-73
2023/03/25 03:48:50;;;;;;;1.70;1.60;;;;;8.90;95563.00;;;;8346073;28;20561;-70
2023/03/25 03:52:59;;;;;;;3.47;1.40;;;;;8.80;95569.00;;;;8347567;28;21736;-74
2023/03/25 03:57:08;;;;;;;3.60;1.30;;;;;8.80;95562.00;;;;8341328;28;20193;-71
2023/03/25 04:01:29;;;;;;;5.97;1.70;;;;;8.70;95554.00;;;;8341768;28;20252;-71
2023/03/25 04:05:38;;;;;;;1.87;1.30;;;;;8.60;95566.00;;;;8368911;28;20773;-73
2023/03/25 04:09:55;;;;;;;3.67;1.60;;;;;8.50;95560.00;;;;8380837;28;20196;-73
2023/03/25 04:14:01;;;;;;;2.27;1.50;;;;;8.50;95564.00;;;;8377896;28;20657;-73
2023/03/25 04:18:04;;;;;;;3.70;1.70;;;;;8.40;95561.00;;;;8374971;28;20193;-74
2023/03/25 04:22:09;;;;;;;2.23;1.30;;;;;8.40;95551.00;;;;8381802;28;20197;-75
2023/03/25 04:26:12;;;;;;;4.27;1.50;;;;;8.50;95555.00;;;;8381361;28;20200;-71
2023/03/25 04:30:20;;;;;;;3.00;1.30;;;;;8.50;95553.00;;;;8352825;28;20200;-70
2023/03/25 04:34:27;;;;;;;2.20;1.97;;;;;8.50;95564.00;;;;8381970;28;20262;-74
2023/03/25 04:38:32;;;;;;;3.43;1.60;;;;;8.50;95567.00;;;;8338828;28;20223;-71
2023/03/25 04:42:36;;;;;;;1.43;1.40;;;;;8.50;95561.00;;;;8368710;28;20204;-72
2023/03/25 04:46:40;;;;;;;4.10;1.73;;;;;8.60;95559.00;;;;8374242;28;20216;-72
2023/03/25 04:50:47;;;;;;;2.37;1.53;;;;;8.60;95558.00;;;;8383804;28;20250;-73
2023/03/25 04:54:51;;;;;;;1.85;1.75;;;;;8.60;95555.00;;;;8383386;28;20241;-72
2023/03/25 04:58:54;;;;;;;4.50;1.90;;;;;8.60;95543.00;;;;8384513;28;20224;-71
2023/03/25 05:03:00;;;;;;;2.83;1.90;;;;;8.60;95543.00;;;;8384317;28;20273;-75
2023/03/25 05:07:06;;;;;;;3.77;1.70;;;;;8.60;95553.00;;;;8382832;28;20204;-73
2023/03/25 05:11:13;;;;;;;1.33;1.33;;;;;8.60;95534.00;;;;8383768;28;20192;-71
2023/03/25 05:15:17;;;;;;;2.93;1.67;;;;;8.60;95550.00;;;;8378774;28;20196;-72
2023/03/25 05:19:26;;;;;;;4.43;1.93;;;;;8.60;95542.00;;;;8384035;28;20277;-74
2023/03/25 05:23:30;;;;;;;2.43;1.83;;;;;8.60;95549.00;;;;8381598;28;20707;-74
2023/03/25 05:27:36;;;;;;;4.30;1.53;;;;;8.70;95557.00;;;;8380820;28;20262;-70
2023/03/25 05:31:43;;;;;;;3.13;1.47;;;;;8.80;95555.00;;;;8364191;28;20193;-73
2023/03/25 05:35:49;;;;;;;2.97;1.60;;;;;8.90;95563.00;;;;8381468;28;20587;-74
2023/03/25 05:39:55;;;;;;;2.53;1.87;;;;;9.00;95587.00;;;;8384834;28;20263;-73
2023/03/25 05:44:01;;;;;;;3.30;1.87;;;;;9.10;95600.00;;;;8385387;28;20638;-76
2023/03/25 05:48:05;;;;;;;4.37;1.83;;;;;9.10;95610.00;;;;8382562;28;20311;-71
2023/03/25 05:52:15;;;;;;;3.23;1.70;;;;;9.10;95605.00;;;;8375668;28;20200;-73
2023/03/25 05:56:21;;;;;;;3.63;1.63;;;;;9.10;95610.00;;;;8370190;28;20691;-73
2023/03/25 06:00:29;;;;;;;1.70;1.60;;;;;9.10;95618.00;;;;8382396;28;20223;-71
2023/03/25 06:04:36;;;;;;;4.00;1.60;;;;;9.10;95626.00;;;;8378675;28;20311;-70
2023/03/25 06:08:40;;;;;;;1.42;1.25;;;;;9.20;95620.00;;;;8383447;28;20239;-70
2023/03/25 06:12:47;;;;;;;1.70;1.50;;;;;9.30;95626.00;;;;8382413;28;20196;-72
2023/03/25 06:16:51;;;;;;;1.35;1.10;;;;;9.30;95640.00;;;;8382125;28;20642;-70
2023/03/25 06:20:56;;;;;;;2.92;1.90;;;;;9.20;95640.00;;;;8363665;28;20837;-74
2023/03/25 06:25:03;;;;;;;3.70;1.47;;;;;9.20;95652.00;;;;8385020;28;20204;-74
2023/03/25 06:29:07;;;;;;;1.93;1.30;;;;;9.20;95653.00;;;;8388526;28;20207;-71
2023/03/25 06:33:12;;;;;;;1.60;1.33;;;;;9.30;95654.00;;;;8378881;28;20610;-71
2023/03/25 06:37:36;;;;;;;2.50;1.30;;;;;9.30;95654.00;;;;8390526;28;20235;-74
2023/03/25 06:41:41;;;;;;;3.20;1.50;;;;;9.30;95651.00;;;;8375636;28;20228;-71
2023/03/25 06:45:52;;;;;;;2.57;1.00;;;;;9.50;95656.00;;;;8386124;28;20874;-71
2023/03/25 06:49:58;;;;;;;3.53;1.60;;;;;9.70;95656.00;;;;8366913;28;20266;-71
2023/03/25 06:54:03;;;;;;;3.43;1.20;;;;;9.80;95670.00;;;;8376932;28;20201;-73
2023/03/25 06:58:06;;;;;;;1.67;1.08;;;;;9.80;95671.00;;;;8374477;28;20612;-77
2023/03/25 07:02:12;;;;;;;11.30;1.40;;;;;9.70;95670.00;;;;8378380;28;20224;-71
2023/03/25 07:06:20;;;;;;;1.10;1.10;;;;;9.80;95684.00;;;;8375137;28;20227;-73
2023/03/25 07:10:26;;;;;;;2.83;1.08;;;;;10.00;95671.00;;;;8381296;28;20192;-73
2023/03/25 07:14:29;;;;;;;1.35;1.30;;;;;10.20;95677.00;;;;8371407;28;20564;-73
2023/03/25 07:18:33;;;;;;;2.17;1.40;;;;;10.20;95667.00;;;;8386161;28;20192;-72
2023/03/25 07:22:38;;;;;;;4.32;1.27;;;;;10.40;95679.00;;;;8381660;28;20234;-76
2023/03/25 07:26:45;;;;;;;2.23;1.27;;;;;10.40;95668.00;;;;8378764;28;20626;-78
2023/03/25 07:30:51;;;;;;;4.55;1.10;;;;;10.40;95663.00;;;;8381209;28;20203;-75
2023/03/25 07:34:54;;;;;;;3.53;1.50;;;;;10.50;95673.00;;;;8377716;28;20189;-74
2023/03/25 07:39:01;;;;;;;3.67;1.10;;;;;10.80;95658.00;;;;8377034;28;20196;-74
2023/03/25 07:43:05;;;;;;;1.45;1.13;;;;;11.10;95668.00;;;;8359821;28;20220;-74
2023/03/25 07:47:10;;;;;;;1.48;1.08;;;;;11.30;95682.00;;;;8378961;28;20224;-74
2023/03/25 07:51:13;;;;;;;2.92;1.20;;;;;11.50;95686.00;;;;8382443;28;20195;-76
2023/03/25 07:55:26;;;;;;;1.88;1.08;;;;;11.70;95688.00;;;;8380562;28;20194;-74
2023/03/25 07:59:32;;;;;;;4.35;1.20;;;;;11.60;95697.00;;;;8384941;28;20211;-74
2023/03/25 08:03:38;;;;;;;2.25;1.00;;;;;11.60;95695.00;;;;8377168;28;20574;-74
2023/03/25 08:07:41;;;;;;;3.30;1.13;;;;;11.50;95687.00;;;;8383204;28;20200;-74
2023/03/25 08:11:48;;;;;;;5.68;1.67;;;;;11.50;95683.00;;;;8379766;28;20219;-74
2023/03/25 08:15:57;;;;;;;2.88;1.13;;;;;11.50;95701.00;;;;8374422;28;20199;-74
2023/03/25 08:20:04;;;;;;;2.55;1.02;;;;;11.40;95710.00;;;;8387991;28;20230;-74
2023/03/25 08:24:08;;;;;;;3.60;1.30;;;;;11.30;95698.00;;;;8360861;28;20236;-74
2023/03/25 08:28:20;;;;;;;6.78;1.40;;;;;11.40;95694.00;;;;8365480;28;20197;-75
2023/03/25 08:32:35;;;;;;;5.20;1.55;;;;;11.60;95694.00;;;;8360519;28;20192;-74
2023/03/25 08:36:39;;;;;;;5.68;1.60;;;;;11.70;95689.00;;;;8362577;28;20248;-74
2023/03/25 08:40:46;;;;;;;4.38;1.20;;;;;11.70;95692.00;;;;8357937;28;20226;-74
2023/03/25 08:44:50;;;;;;;4.45;1.60;;;;;11.90;95693.00;;;;8376493;28;20203;-74
2023/03/25 08:48:54;;;;;;;1.13;1.05;;;;;12.40;95686.00;;;;8383516;28;20209;-74
2023/03/25 08:52:59;;;;;;;5.38;1.38;;;;;12.50;95679.00;;;;8358040;28;20196;-74
2023/03/25 08:57:03;;;;;;;1.65;1.17;;;;;12.70;95670.00;;;;8346383;28;20200;-74
2023/03/25 09:01:10;;;;;;;1.23;1.20;;;;;12.70;95683.00;;;;8361727;28;20376;-74
2023/03/25 09:05:14;;;;;;;4.25;1.30;;;;;12.90;95679.00;;;;8352267;28;20293;-74
2023/03/25 09:09:25;;;;;;;4.97;1.20;;;;;13.40;95674.00;;;;8354158;28;20232;-74
2023/03/25 09:13:28;;;;;;;2.10;1.70;;;;;13.50;95677.00;;;;8359146;28;20197;-74
2023/03/25 09:17:32;;;;;;;4.32;1.42;;;;;13.50;95686.00;;;;8360182;28;20201;-74
2023/03/25 09:21:37;;;;;;;4.40;1.55;;;;;13.70;95687.00;;;;8357726;28;20981;-74
2023/03/25 09:25:41;;;;;;;1.75;1.10;;;;;13.80;95681.00;;;;8353313;28;20245;-74
2023/03/25 09:29:47;;;;;;;4.78;1.70;;;;;13.90;95673.00;;;;8362930;28;20249;-74
2023/03/25 09:33:52;;;;;;;1.40;1.10;;;;;13.80;95676.00;;;;8358083;28;20201;-74
2023/03/25 09:37:57;;;;;;;4.15;1.40;;;;;13.60;95662.00;;;;8359784;28;20191;-74
2023/03/25 09:42:39;;;;;;;1.27;0.98;;;;;13.80;95670.00;;;;8366116;28;20633;-74
2023/03/25 09:46:46;;;;;;;2.08;1.33;;;;;13.40;95674.00;;;;8351533;28;20257;-74
2023/03/25 09:50:52;;;;;;;2.88;1.30;;;;;13.50;95666.00;;;;8375291;28;20219;-74
2023/03/25 09:55:01;;;;;;;4.45;1.30;;;;;13.70;95659.00;;;;8367312;28;20192;-74
2023/03/25 09:59:10;;;;;;;3.55;1.30;;;;;13.90;95672.00;;;;8363860;28;20249;-74
2023/03/25 10:03:21;;;;;;;4.43;1.42;;;;;13.80;95659.00;;;;8372795;28;20262;-74
2023/03/25 10:07:46;;;;;;;2.47;1.20;;;;;13.60;95662.00;;;;8361028;28;20204;-74
2023/03/25 10:11:56;;;;;;;4.07;1.42;;;;;14.20;95644.00;;;;8361034;28;20809;-73
2023/03/25 10:16:06;;;;;;;2.08;1.70;;;;;14.80;95650.00;;;;8384736;28;20201;-74
2023/03/25 10:20:16;;;;;;;3.28;2.97;;;;;15.40;95656.00;;;;8365668;28;20950;-74
2023/03/25 10:24:26;;;;;;;9.98;3.40;;;;;15.10;95642.00;;;;8356015;28;20197;-74
2023/03/25 10:28:37;;;;;;;21.15;10.95;;;;;15.20;95646.00;;;;8364566;28;20200;-74
2023/03/25 10:32:44;;;;;;;5.38;4.07;;;;;14.80;95653.00;;;;8352283;28;20197;-74
2023/03/25 10:36:53;;;;;;;1.67;1.58;;;;;15.10;95643.00;;;;8362279;28;20208;-74
2023/03/25 10:41:11;;;;;;;30.85;13.07;;;;;15.10;95625.00;;;;8361989;28;20653;-73
2023/03/25 10:45:16;;;;;;;35.90;14.68;;;;;15.30;95634.00;;;;8362850;28;20224;-74
2023/03/25 10:49:22;;;;;;;18.90;9.82;;;;;15.40;95638.00;;;;8381635;28;20596;-73
2023/03/25 10:53:27;;;;;;;11.68;7.22;;;;;15.00;95627.00;;;;8364199;28;20274;-74
2023/03/25 10:57:35;;;;;;;7.05;4.97;;;;;14.90;95639.00;;;;8364082;28;20206;-73
2023/03/25 11:01:40;;;;;;;2.85;2.65;;;;;14.50;95632.00;;;;8353007;28;20689;-73
2023/03/25 11:05:46;;;;;;;3.20;2.78;;;;;14.10;95634.00;;;;8358639;28;20679;-73
2023/03/25 11:09:50;;;;;;;2.42;1.60;;;;;14.00;95631.00;;;;8363258;28;20204;-73
2023/03/25 11:14:01;;;;;;;1.55;1.30;;;;;14.00;95623.00;;;;8365594;28;20255;-73
2023/03/25 11:18:06;;;;;;;1.08;1.08;;;;;13.70;95621.00;;;;8359964;28;20196;-73
2023/03/25 11:22:17;;;;;;;1.95;1.50;;;;;13.70;95624.00;;;;8363630;28;20223;-73
2023/03/25 11:26:29;;;;;;;2.45;1.30;;;;;14.00;95612.00;;;;8340922;28;20200;-73
2023/03/25 11:30:33;;;;;;;4.35;1.42;;;;;14.10;95613.00;;;;8369930;28;20193;-73
2023/03/25 11:34:40;;;;;;;1.50;1.13;;;;;14.00;95613.00;;;;8368756;28;20262;-73
2023/03/25 11:38:57;;;;;;;2.28;1.30;;;;;13.10;95627.00;;;;8340632;28;20268;-74
2023/03/25 11:43:03;;;;;;;3.33;1.30;;;;;12.00;95633.00;;;;8362947;28;20739;-74
2023/03/25 11:47:10;;;;;;;1.88;1.38;;;;;11.50;95638.00;;;;8378428;28;20201;-73
2023/03/25 11:51:15;;;;;;;1.42;1.33;;;;;11.40;95631.00;;;;8373594;28;20198;-73
2023/03/25 11:55:21;;;;;;;1.35;1.20;;;;;11.30;95633.00;;;;8389642;28;20196;-74
2023/03/25 11:59:35;;;;;;;1.38;1.33;;;;;11.60;95612.00;;;;8365343;28;20255;-73
2023/03/25 12:03:42;;;;;;;2.42;1.25;;;;;11.90;95618.00;;;;8379172;28;20601;-73
2023/03/25 12:07:47;;;;;;;0.95;0.93;;;;;12.10;95615.00;;;;8377871;28;20245;-73
2023/03/25 12:12:02;;;;;;;1.08;0.90;;;;;12.60;95597.00;;;;8380905;28;20207;-73
2023/03/25 12:16:21;;;;;;;0.90;0.90;;;;;13.00;95599.00;;;;8373360;28;20280;-73
2023/03/25 12:20:34;;;;;;;1.00;1.00;;;;;13.20;95593.00;;;;8368924;28;20721;-73
2023/03/25 12:24:59;;;;;;;1.02;1.00;;;;;13.40;95593.00;;;;8375055;28;20228;-73
2023/03/25 12:29:15;;;;;;;1.00;1.00;;;;;13.70;95589.00;;;;8380368;28;20718;-74
2023/03/25 12:33:33;;;;;;;0.90;0.90;;;;;13.80;95569.00;;;;8374653;28;20245;-73
2023/03/25 12:37:55;;;;;;;1.15;1.10;;;;;13.90;95546.00;;;;8372320;28;20214;-73
2023/03/25 12:42:08;;;;;;;0.90;0.90;;;;;13.90;95548.00;;;;8376227;28;20224;-73
2023/03/25 12:46:28;;;;;;;0.90;0.90;;;;;13.50;95556.00;;;;8349712;28;20715;-73
2023/03/25 12:50:40;;;;;;;0.85;0.85;;;;;12.90;95559.00;;;;8375275;28;20196;-74
2023/03/25 12:55:02;;;;;;;7.65;3.72;;;;;12.00;95583.00;;;;8369650;28;20250;-75
2023/03/25 12:59:40;;;;;;;42.88;16.33;;;;;11.30;95588.00;;;;8371410;28;20196;-75
2023/03/25 13:04:11;;;;;;;35.80;19.95;;;;;10.40;95602.00;;;;8370325;28;21010;-75
2023/03/25 13:08:24;;;;;;;18.50;10.30;;;;;9.90;95592.00;;;;8374910;28;20704;-76
2023/03/25 13:12:33;;;;;;;11.45;8.15;;;;;9.60;95577.00;;;;8367013;28;20278;-76
2023/03/25 13:16:39;;;;;;;7.70;6.03;;;;;9.60;95575.00;;;;8360620;28;20254;-76
2023/03/25 13:20:48;;;;;;;18.67;15.00;;;;;9.60;95575.00;;;;8375402;28;20309;-76
2023/03/25 13:24:55;;;;;;;15.00;12.60;;;;;9.70;95573.00;;;;8378673;28;20610;-78
2023/03/25 13:29:01;;;;;;;4.63;2.55;;;;;9.80;95582.00;;;;8398723;28;20279;-78
2023/03/25 13:33:12;;;;;;;1.60;1.50;;;;;10.30;95586.00;;;;8398618;28;20272;-78
2023/03/25 13:37:22;;;;;;;1.60;1.50;;;;;10.50;95585.00;;;;8398960;28;20224;-78
2023/03/25 13:41:35;;;;;;;1.20;1.20;;;;;10.60;95565.00;;;;8380678;28;20663;-77
2023/03/25 13:45:47;;;;;;;1.13;1.02;;;;;10.80;95572.00;;;;8398260;28;20193;-76
2023/03/25 13:49:56;;;;;;;1.00;1.00;;;;;11.10;95572.00;;;;8380228;28;20722;-77
2023/03/25 13:54:06;;;;;;;0.90;0.90;;;;;11.60;95567.00;;;;8398711;28;20185;-77
2023/03/25 13:58:27;;;;;;;2.45;1.40;;;;;11.50;95567.00;;;;8397406;28;20182;-77
2023/03/25 14:02:49;;;;;;;1.30;1.10;;;;;11.90;95560.00;;;;8397991;28;20247;-77
2023/03/25 14:07:10;;;;;;;1.00;1.00;;;;;12.30;95567.00;;;;8397568;28;20222;-76
2023/03/25 14:11:23;;;;;;;0.90;0.90;;;;;12.30;95551.00;;;;8397967;28;20194;-76
2023/03/25 14:15:30;;;;;;;0.88;0.88;;;;;12.50;95553.00;;;;8397749;28;20281;-75
2023/03/25 14:19:38;;;;;;;1.75;1.10;;;;;12.90;95541.00;;;;8397980;28;20200;-75
2023/03/25 14:23:41;;;;;;;1.00;1.00;;;;;13.40;95555.00;;;;8398179;28;20259;-75
2023/03/25 14:27:52;;;;;;;2.17;2.08;;;;;13.60;95530.00;;;;8397621;28;20192;-75
2023/03/25 14:32:24;;;;;;;5.40;2.92;;;;;13.30;95525.00;;;;8397974;28;20196;-76
2023/03/25 14:36:30;;;;;;;8.60;4.90;;;;;12.90;95540.00;;;;8394014;28;20692;-76
2023/03/25 14:40:48;;;;;;;9.30;5.05;;;;;12.20;95576.00;;;;8395026;28;20325;-76
2023/03/25 14:45:35;;;;;;;2.22;2.03;;;;;11.70;95560.00;;;;8403751;28;20675;-77
2023/03/25 14:49:53;;;;;;;5.95;3.72;;;;;11.90;95543.00;;;;8404028;28;20275;-76
2023/03/25 14:54:04;;;;;;;1.75;1.65;;;;;12.10;95539.00;;;;8403232;28;20576;-76
2023/03/25 14:58:20;;;;;;;0.90;0.90;;;;;12.20;95543.00;;;;8403706;28;20666;-76
2023/03/25 15:02:29;;;;;;;1.10;1.00;;;;;12.30;95556.00;;;;8403171;28;20628;-76
2023/03/25 15:06:35;;;;;;;0.98;0.98;;;;;12.00;95580.00;;;;8402761;28;20244;-76
2023/03/25 15:10:43;;;;;;;2.03;1.10;;;;;11.20;95607.00;;;;8402350;28;20194;-77
2023/03/25 15:14:50;;;;;;;1.00;1.00;;;;;10.30;95627.00;;;;8403000;28;20198;-76
2023/03/25 15:19:07;;;;;;;2.15;1.35;;;;;9.20;95619.00;;;;8402402;28;20242;-81
2023/03/25 15:23:42;;;;;;;1.73;1.42;;;;;9.10;95603.00;;;;8404139;28;20653;-74
2023/03/25 15:28:06;;;;;;;5.30;1.80;;;;;9.10;95591.00;;;;8396706;28;20245;-75
2023/03/25 15:32:26;;;;;;;2.35;2.10;;;;;9.40;95589.00;;;;8402064;28;20192;-79
2023/03/25 15:36:54;;;;;;;2.45;2.33;;;;;9.50;95594.00;;;;8401864;28;20203;-79
2023/03/25 15:41:11;;;;;;;7.55;1.90;;;;;9.60;95596.00;;;;8402699;28;20193;-81
2023/03/25 15:45:36;;;;;;;1.70;1.60;;;;;9.60;95590.00;;;;8401096;28;20313;-84
2023/03/25 15:50:21;;;;;;;4.22;1.98;;;;;9.60;95594.00;;;;8402700;28;20187;-84
2023/03/25 15:54:31;;;;;;;1.92;1.83;;;;;9.70;95591.00;;;;8399271;28;20587;-84
2023/03/25 15:58:44;;;;;;;1.75;1.40;;;;;9.80;95592.00;;;;8399925;28;20204;-84
2023/03/25 16:02:54;;;;;;;1.90;1.75;;;;;9.90;95588.00;;;;8401640;28;20229;-84
2023/03/25 16:07:04;;;;;;;1.20;1.20;;;;;10.00;95579.00;;;;8398385;28;20292;-85
2023/03/25 16:11:15;;;;;;;5.10;1.80;;;;;9.90;95577.00;;;;8414258;28;20649;-86
2023/03/25 16:15:28;;;;;;;1.80;1.70;;;;;9.60;95573.00;;;;8399917;28;20200;-85
2023/03/25 16:19:39;;;;;;;4.35;2.70;;;;;9.40;95562.00;;;;8400651;28;20188;-86
2023/03/25 16:23:42;;;;;;;1.92;1.83;;;;;9.50;95576.00;;;;8401190;28;20254;-85
2023/03/25 16:27:51;;;;;;;2.53;1.70;;;;;9.80;95570.00;;;;8397642;28;20196;-87
2023/03/25 16:31:57;;;;;;;2.78;1.50;;;;;10.00;95579.00;;;;8399934;28;20204;-87
2023/03/25 16:36:04;;;;;;;3.60;1.67;;;;;10.10;95580.00;;;;8399591;28;20241;-87
2023/03/25 16:40:21;;;;;;;1.85;1.75;;;;;10.00;95582.00;;;;8400484;28;20222;-86
2023/03/25 16:44:27;;;;;;;2.63;2.42;;;;;10.00;95579.00;;;;8399969;28;20275;-85
2023/03/25 16:48:33;;;;;;;1.70;1.60;;;;;9.90;95582.00;;;;8399513;28;20193;-85
2023/03/25 16:52:43;;;;;;;2.00;1.80;;;;;9.80;95590.00;;;;8396595;28;20185;-86
2023/03/25 16:56:47;;;;;;;1.60;1.50;;;;;9.80;95585.00;;;;8394746;28;20204;-82
2023/03/25 17:00:59;;;;;;;4.72;1.65;;;;;9.80;95584.00;;;;8399571;28;20659;-80
2023/03/25 17:05:15;;;;;;;2.72;1.40;;;;;9.70;95576.00;;;;8397312;28;20322;-81
2023/03/25 17:09:22;;;;;;;2.17;1.30;;;;;9.70;95575.00;;;;8399035;28;20196;-75
2023/03/25 17:13:35;;;;;;;1.73;1.30;;;;;9.60;95577.00;;;;8399796;28;20190;-75
2023/03/25 17:17:42;;;;;;;3.80;1.20;;;;;9.50;95585.00;;;;8398339;28;20192;-75
2023/03/25 17:22:03;;;;;;;1.88;1.27;;;;;9.30;95589.00;;;;8398108;28;20196;-76
2023/03/25 17:26:10;;;;;;;1.73;1.30;;;;;9.30;95589.00;;;;8413731;28;20729;-68
2023/03/25 17:30:19;;;;;;;2.22;1.60;;;;;9.20;95597.00;;;;8397934;28;20235;-68
2023/03/25 17:34:26;;;;;;;1.65;1.25;;;;;9.10;95595.00;;;;8398091;28;20644;-68
2023/03/25 17:38:33;;;;;;;3.30;1.20;;;;;9.00;95605.00;;;;8397614;28;20191;-68
2023/03/25 17:42:39;;;;;;;5.45;4.00;;;;;8.90;95613.00;;;;8398582;28;20188;-68
2023/03/25 17:46:44;;;;;;;35.95;14.27;;;;;8.90;95608.00;;;;8398157;28;20232;-68
2023/03/25 17:50:52;;;;;;;5.67;4.60;;;;;8.80;95621.00;;;;8398776;28;20192;-68
2023/03/25 17:54:55;;;;;;;9.77;6.10;;;;;8.70;95624.00;;;;8397301;28;20199;-68
2023/03/25 17:59:07;;;;;;;37.50;19.90;;;;;8.60;95628.00;;;;8413478;28;20192;-68
2023/03/25 18:03:17;;;;;;;17.40;10.83;;;;;8.60;95615.00;;;;8398354;28;20281;-67
2023/03/25 18:07:21;;;;;;;5.27;3.00;;;;;8.60;95631.00;;;;8397906;28;20237;-67
2023/03/25 18:11:25;;;;;;;11.27;3.70;;;;;8.50;95636.00;;;;8397482;28;20278;-68
2023/03/25 18:15:29;;;;;;;1.80;1.70;;;;;8.50;95636.00;;;;8398725;28;20336;-69
2023/03/25 18:19:33;;;;;;;6.00;3.37;;;;;8.50;95637.00;;;;8404707;28;20249;-69
2023/03/25 18:23:38;;;;;;;10.55;3.22;;;;;8.40;95645.00;;;;8400083;28;20311;-69
2023/03/25 18:27:52;;;;;;;12.53;7.53;;;;;8.40;95650.00;;;;8403263;28;20498;-69
2023/03/25 18:31:57;;;;;;;12.57;6.83;;;;;8.30;95634.00;;;;8402858;28;20181;-70
2023/03/25 18:36:00;;;;;;;7.80;5.10;;;;;8.30;95626.00;;;;8404151;28;20278;-69
2023/03/25 18:40:15;;;;;;;9.90;7.23;;;;;8.20;95631.00;;;;8385759;28;20245;-68
2023/03/25 18:44:26;;;;;;;3.30;2.57;;;;;8.20;95636.00;;;;8401418;28;20261;-68
2023/03/25 18:48:30;;;;;;;4.27;3.17;;;;;8.10;95637.00;;;;8403690;28;20195;-68
2023/03/25 18:52:37;;;;;;;5.88;4.07;;;;;8.00;95633.00;;;;8402718;28;20188;-68
2023/03/25 18:56:42;;;;;;;3.50;2.77;;;;;8.10;95646.00;;;;8403002;28;20192;-68
2023/03/25 19:00:49;;;;;;;4.07;3.60;;;;;8.10;95645.00;;;;8402645;28;20203;-68
2023/03/25 19:04:56;;;;;;;4.97;2.50;;;;;8.10;95653.00;;;;8403396;28;20228;-68
2023/03/25 19:09:04;;;;;;;6.20;4.43;;;;;8.10;95654.00;;;;8386195;28;20200;-68
2023/03/25 19:13:07;;;;;;;3.33;2.20;;;;;8.10;95648.00;;;;8403549;28;20196;-69
2023/03/25 19:17:11;;;;;;;4.78;2.65;;;;;8.10;95643.00;;;;8402567;28;20199;-68
2023/03/25 19:21:21;;;;;;;1.93;1.80;;;;;8.10;95642.00;;;;8394271;28;20588;-69
2023/03/25 19:25:25;;;;;;;3.00;1.53;;;;;8.10;95650.00;;;;8401259;28;20255;-68
2023/03/25 19:29:31;;;;;;;2.00;1.50;;;;;8.20;95651.00;;;;8402036;28;20240;-69
2023/03/25 19:33:34;;;;;;;2.87;1.83;;;;;8.20;95657.00;;;;8402008;28;20200;-68
2023/03/25 19:37:46;;;;;;;3.60;1.93;;;;;8.20;95657.00;;;;8402511;28;20591;-68
2023/03/25 19:41:51;;;;;;;3.67;1.97;;;;;8.20;95655.00;;;;8402541;28;20200;-68
2023/03/25 19:45:55;;;;;;;3.53;1.63;;;;;8.20;95652.00;;;;8401212;28;20540;-68
2023/03/25 19:49:59;;;;;;;2.30;2.10;;;;;8.20;95654.00;;;;8402191;28;20200;-68
2023/03/25 19:54:04;;;;;;;3.22;1.98;;;;;8.20;95653.00;;;;8401547;28;20196;-68
2023/03/25 19:58:08;;;;;;;5.53;2.27;;;;;8.20;95657.00;;;;8401845;28;20203;-68
2023/03/25 20:02:14;;;;;;;2.53;2.23;;;;;8.10;95662.00;;;;8401755;28;20668;-68
2023/03/25 20:06:19;;;;;;;4.97;1.50;;;;;8.10;95658.00;;;;8402204;28;20632;-68
2023/03/25 20:10:29;;;;;;;2.40;1.57;;;;;8.10;95657.00;;;;8399767;28;20195;-68
2023/03/25 20:14:34;;;;;;;2.17;1.53;;;;;8.10;95663.00;;;;8401089;28;20191;-68
2023/03/25 20:18:40;;;;;;;2.60;1.40;;;;;8.20;95663.00;;;;8401344;28;20610;-68
2023/03/25 20:22:45;;;;;;;3.00;1.60;;;;;8.20;95661.00;;;;8400925;28;20575;-68
2023/03/25 20:26:51;;;;;;;5.57;3.13;;;;;8.30;95665.00;;;;8401273;28;20246;-68
2023/03/25 20:30:56;;;;;;;5.87;3.63;;;;;8.30;95659.00;;;;8400096;28;20193;-68
2023/03/25 20:34:59;;;;;;;5.43;1.60;;;;;8.40;95656.00;;;;8401102;28;20295;-68
2023/03/25 20:39:04;;;;;;;1.60;1.47;;;;;8.50;95661.00;;;;8399157;28;20306;-68
2023/03/25 20:43:11;;;;;;;1.50;1.40;;;;;8.60;95664.00;;;;8400652;28;20609;-68
2023/03/25 20:47:15;;;;;;;1.23;1.23;;;;;8.70;95654.00;;;;8399836;28;20224;-68
2023/03/25 20:51:19;;;;;;;2.05;1.38;;;;;8.90;95655.00;;;;8400204;28;20200;-68
2023/03/25 20:55:22;;;;;;;3.23;1.40;;;;;8.90;95647.00;;;;8399712;28;20238;-68
2023/03/25 20:59:27;;;;;;;2.63;1.60;;;;;9.00;95645.00;;;;8399703;28;20195;-68